Rechercher aéroport 
image banner adimage banner adimage banner ad
image banner ad

02CL - Conover Air Lodge

Situé à Frazier Park, United States

ICAO - 02CL, IATA -

Données fournies par Airmate  

Information générale

Coordonnées: N34°45'40" W119°3'32"
Élévation : 5160 feet MSL.
Variation magnétique : 14° East
Voir autres Aéroports à California

Données opérationnelles

Special qualification required
Heure actuelle UTC:
Heure actuelle locale:
Météo à : KCMA - Camarillo ( 61 km )
METAR: KCMA 292355Z 26010KT 10SM CLR 23/14 A2987 RMK AO2 SLP123 T02330144 10256 20228 56013
TAF: KCMA 292348Z 3000/3024 25010KT P6SM SKC FM300300 VRB03KT P6SM SKC FM300900 VRB03KT 2SM BR OVC004 FM301700 27005KT P6SM SCT008 FM301900 27011KT P6SM SKC
Voir NOTAMs / SUP AIP / TFR affectant cet aéroport [VIEW]
Fréquences de communication: [VIEW]

Pistes:

Identifiant RWYQFULongueur (ft)Largeur (ft)SurfaceLDA (ft)
16300060EARTH
34300060EARTH

Coordonnées de l'aéroport

Adresse: Frazier Park United States

Vue satellite de 02CL